Nearby METAR Reports

 

KRYN - Tucson/Ryan Fld, Arizona, USA
Distance from station: SSW 16mi, 26km
Updated: Tue, 11-Dec-2018 7:45pm MST
NOT Current
Clear
Clear
 Wind from SW
Wind: SW 6 mph , 9 km/h
Temperature: 55°F , 13°C
Dew Point: 43°F , 6°C
Humidity: 63%
Barometer: 30.06 inHg , 1017.9 hPa
Clouds: Clear
Visibility: 10 miles , 16 km
2018/12/12 02:45 KRYN 120245Z 22005KT 10SM CLR 13/06 A3006 RMK LAST
KTUS - Tucson, Arizona, USA
Distance from station: SSE 18mi, 28km
Updated: Wed, 12-Dec-2018 12:53am MST
Clear
Clear
 Wind from S
Wind: S 3 mph , 6 km/h
Temperature: 50°F , 10°C
Dew Point: 43°F , 6°C
Humidity: 76%
Barometer: 30.06 inHg , 1017.9 hPa
Clouds: Clear
Visibility: 10 miles , 16 km
2018/12/12 07:53 KTUS 120753Z 17003KT 10SM CLR 10/06 A3006 RMK AO2 SLP156 T01000061
 
KDMA - Davis/Tucson, Arizona, USA
Distance from station: SE 18mi, 29km
Updated: Wed, 12-Dec-2018 12:58am MST
Partly cloudy
Partly cloudy
 Wind from SW
Wind: SW 3 mph , 6 km/h
Temperature: 48°F , 9°C
Dew Point: 41°F , 5°C
Humidity: 76%
Barometer: 30.05 inHg , 1017.6 hPa
Clouds: Partly cloudy
Visibility: 10 miles , 16 km
Cloud details: Partly cloudy 17000 ft
2018/12/12 07:58 KDMA 120758Z AUTO 22003KT 10SM SCT170 09/05 A3005 RMK AO2 SLP152 T00870045 $
KCGZ - Casa Granda, Arizona, USA
Distance from station: NW 57mi, 92km
Updated: Wed, 12-Dec-2018 12:56am MST
Clear
Clear
 Wind from NNE
Wind: NNE 5 mph , 7 km/h
Temperature: 43°F , 6°C
Wind Chill: 40°F , 4°C
Dew Point: 37°F , 3°C
Humidity: 81%
Barometer: 30.04 inHg , 1017.3 hPa
Clouds: Clear
Visibility: 10 miles , 16 km
2018/12/12 07:56 KCGZ 120756Z AUTO 02004KT 10SM CLR 06/03 A3004 RMK AO2 SLP174 T00610033 $
 
KALK - Pioneer Airfield, Arizona, USA
Distance from station: SE 65mi, 104km
Updated: Wed, 12-Dec-2018 12:56am MST
Clear
Clear
 Wind from varies
Wind: varies 5 mph , 7 km/h
Temperature: 46°F , 8°C
Wind Chill: 44°F , 7°C
Dew Point: 36°F , 2°C
Humidity: 66%
Barometer: 30.11 inHg , 1019.6 hPa
Clouds: Clear
Visibility: 10 miles , 16 km
2018/12/12 07:56 KALK 120756Z AUTO VRB04KT 10SM CLR 08/02 A3011 RMK AO2 SLP140 T00830022
KOLS - Nogales, Arizona, USA
Distance from station: S 67mi, 108km
Updated: Wed, 12-Dec-2018 12:54am MST
Clear
Clear
 Wind from NNE
Wind: NNE 5 mph , 7 km/h
Temperature: 46°F , 8°C
Wind Chill: 44°F , 7°C
Dew Point: 37°F , 3°C
Humidity: 71%
Barometer: 30.07 inHg , 1018.3 hPa
Clouds: Clear
Visibility: 10 miles , 16 km
2018/12/12 07:54 KOLS 120754Z AUTO 02004KT 10SM CLR 08/03 A3007 RMK AO2 SLP147 T00780028
 
KFHU - Fort Huachuca, Arizona, USA
Distance from station: SE 69mi, 110km
Updated: Wed, 12-Dec-2018 12:58am MST
Clear
Clear
 Wind from S
Wind: S 10 mph , 17 km/h
Temperature: 48°F , 9°C
Wind Chill: 44°F , 7°C
Dew Point: 39°F , 4°C
Humidity: 71%
Barometer: 30.10 inHg , 1019.3 hPa
Clouds: Clear
Visibility: 10 miles , 16 km
2018/12/12 07:58 KFHU 120758Z AUTO 17009KT 10SM CLR 09/04 A3010 RMK AO2 SLP160 T00850035 $
KIWA - Chandler/Mesa, Arizona, USA
Distance from station: NNW 73mi, 117km
Updated: Wed, 12-Dec-2018 1:35am MST
Clear
Clear
 Wind from ESE
Wind: ESE 6 mph , 9 km/h
Temperature: 46°F , 8°C
Wind Chill: 43°F , 6°C
Dew Point: 37°F , 3°C
Humidity: 71%
Barometer: 30.04 inHg , 1017.3 hPa
Clouds: Clear
Visibility: 10 miles , 16 km
2018/12/12 08:35 KIWA 120835Z AUTO 12005KT 10SM CLR 08/03 A3004 RMK AO2 T00840029